EWG4IC EDDH-EKCH
Flight info
| Callsign | EWG4IC |
|---|---|
| Flight time | 0h 30m |
| Altitude | 23000 |
| Route | LUGEG3C LUGEG P605 GESKA Z711 MONAK |
| Aircraft | A320/M-SDE3FGHIRWY/LB1 |
Departure
| Time | 2026-05-06 12:31 |
|---|---|
| Airport | Hamburg Helmut Schmidt Airport (EDDH) |
Arrival
| Time | 2026-05-06 13:01 |
|---|---|
| Airport | Copenhagen Kastrup Airport (EKCH) |
| Time | Latitude | Longitude | Altitude | Speed | Heading |
|---|---|---|---|---|---|
| 2026-05-06 11:44 | 53.63312 | 10.00031 | 49 ft | 0 kts | 140° |
| 2026-05-06 12:12 | 53.63315 | 10.00027 | 47 ft | 2 kts | 140° |
| 2026-05-06 12:12 | 53.63328 | 10.00009 | 48 ft | 2 kts | 140° |
| 2026-05-06 12:12 | 53.63340 | 9.99989 | 46 ft | 2 kts | 163° |
| 2026-05-06 12:13 | 53.63356 | 9.99980 | 45 ft | 2 kts | 175° |
| 2026-05-06 12:13 | 53.63370 | 9.99984 | 47 ft | 0 kts | 231° |
| 2026-05-06 12:13 | 53.63370 | 9.99983 | 47 ft | 0 kts | 231° |
| 2026-05-06 12:13 | 53.63369 | 9.99983 | 47 ft | 0 kts | 231° |
| 2026-05-06 12:14 | 53.63367 | 9.99979 | 47 ft | 1 kts | 231° |
| 2026-05-06 12:14 | 53.63365 | 9.99975 | 47 ft | 0 kts | 231° |
| 2026-05-06 12:14 | 53.63364 | 9.99972 | 47 ft | 1 kts | 231° |
| 2026-05-06 12:15 | 53.63364 | 9.99971 | 47 ft | 0 kts | 231° |
| 2026-05-06 12:15 | 53.63363 | 9.99969 | 47 ft | 1 kts | 231° |
| 2026-05-06 12:15 | 53.63362 | 9.99968 | 47 ft | 0 kts | 231° |
| 2026-05-06 12:18 | 53.63358 | 9.99958 | 44 ft | 6 kts | 233° |
| 2026-05-06 12:18 | 53.63332 | 9.99891 | 48 ft | 6 kts | 238° |
| 2026-05-06 12:18 | 53.63306 | 9.99823 | 48 ft | 11 kts | 236° |
| 2026-05-06 12:19 | 53.63244 | 9.99710 | 48 ft | 13 kts | 224° |
| 2026-05-06 12:19 | 53.63187 | 9.99601 | 47 ft | 13 kts | 230° |
| 2026-05-06 12:19 | 53.63126 | 9.99469 | 46 ft | 18 kts | 236° |
| 2026-05-06 12:19 | 53.63038 | 9.99257 | 47 ft | 19 kts | 229° |
| 2026-05-06 12:20 | 53.62966 | 9.99115 | 47 ft | 15 kts | 230° |
| 2026-05-06 12:20 | 53.62903 | 9.98990 | 47 ft | 13 kts | 230° |
| 2026-05-06 12:20 | 53.62840 | 9.98856 | 47 ft | 19 kts | 231° |
| 2026-05-06 12:20 | 53.62732 | 9.98640 | 47 ft | 20 kts | 229° |
| 2026-05-06 12:21 | 53.62650 | 9.98470 | 47 ft | 18 kts | 231° |
| 2026-05-06 12:21 | 53.62576 | 9.98322 | 47 ft | 15 kts | 230° |
| 2026-05-06 12:21 | 53.62509 | 9.98198 | 47 ft | 13 kts | 223° |
| 2026-05-06 12:21 | 53.62443 | 9.98102 | 45 ft | 14 kts | 220° |
| 2026-05-06 12:22 | 53.62340 | 9.97910 | 47 ft | 24 kts | 230° |
| 2026-05-06 12:22 | 53.62243 | 9.97716 | 47 ft | 16 kts | 230° |
| 2026-05-06 12:22 | 53.62185 | 9.97587 | 47 ft | 8 kts | 247° |
| 2026-05-06 12:22 | 53.62178 | 9.97512 | 47 ft | 6 kts | 270° |
| 2026-05-06 12:23 | 53.62195 | 9.97436 | 44 ft | 9 kts | 308° |
| 2026-05-06 12:23 | 53.62200 | 9.97425 | 44 ft | 0 kts | 308° |
| 2026-05-06 12:28 | 53.62217 | 9.97395 | 42 ft | 13 kts | 317° |
| 2026-05-06 12:29 | 53.62307 | 9.97356 | 40 ft | 12 kts | 36° |
| 2026-05-06 12:29 | 53.62337 | 9.97406 | 40 ft | 0 kts | 52° |
| 2026-05-06 12:30 | 53.62342 | 9.97418 | 40 ft | 8 kts | 52° |
| 2026-05-06 12:30 | 53.62541 | 9.97817 | 41 ft | 79 kts | 50° |
| 2026-05-06 12:30 | 53.63018 | 9.98781 | 46 ft | 133 kts | 50° |
| 2026-05-06 12:30 | 53.63688 | 10.00118 | 314 ft | 155 kts | 49° |
| 2026-05-06 12:31 | 53.64380 | 10.01508 | 1106 ft | 154 kts | 50° |
| 2026-05-06 12:31 | 53.65066 | 10.02959 | 1663 ft | 167 kts | 52° |
| 2026-05-06 12:31 | 53.65833 | 10.04598 | 2003 ft | 188 kts | 53° |
| 2026-05-06 12:31 | 53.66669 | 10.06382 | 2678 ft | 195 kts | 52° |
| 2026-05-06 12:32 | 53.67510 | 10.08175 | 3587 ft | 196 kts | 53° |
| 2026-05-06 12:32 | 53.68371 | 10.10004 | 4351 ft | 202 kts | 53° |
| 2026-05-06 12:32 | 53.69258 | 10.11889 | 5100 ft | 208 kts | 53° |
| 2026-05-06 12:32 | 53.70167 | 10.13816 | 5965 ft | 212 kts | 53° |
| 2026-05-06 12:33 | 53.71099 | 10.15790 | 6775 ft | 218 kts | 53° |
| 2026-05-06 12:33 | 53.72060 | 10.17852 | 7336 ft | 233 kts | 53° |
| 2026-05-06 12:33 | 53.73084 | 10.20101 | 7678 ft | 257 kts | 53° |
| 2026-05-06 12:33 | 53.74203 | 10.22577 | 8224 ft | 270 kts | 53° |
| 2026-05-06 12:34 | 53.75359 | 10.25137 | 8985 ft | 277 kts | 53° |
| 2026-05-06 12:34 | 53.76542 | 10.27753 | 9748 ft | 284 kts | 52° |
| 2026-05-06 12:34 | 53.77765 | 10.30459 | 10241 ft | 299 kts | 53° |
| 2026-05-06 12:34 | 53.79079 | 10.33366 | 10498 ft | 323 kts | 53° |
| 2026-05-06 12:35 | 53.80469 | 10.36448 | 10982 ft | 335 kts | 52° |
| 2026-05-06 12:35 | 53.81898 | 10.39620 | 11637 ft | 342 kts | 53° |
| 2026-05-06 12:35 | 53.83350 | 10.42849 | 12319 ft | 347 kts | 53° |
| 2026-05-06 12:35 | 53.84823 | 10.46123 | 13034 ft | 352 kts | 53° |
| 2026-05-06 12:36 | 53.86318 | 10.49448 | 13686 ft | 358 kts | 53° |
| 2026-05-06 12:36 | 53.87832 | 10.52817 | 14289 ft | 362 kts | 54° |
| 2026-05-06 12:36 | 53.89367 | 10.56239 | 14847 ft | 368 kts | 54° |
| 2026-05-06 12:36 | 53.90922 | 10.59717 | 15426 ft | 372 kts | 54° |
| 2026-05-06 12:37 | 53.92490 | 10.63226 | 16031 ft | 376 kts | 54° |
| 2026-05-06 12:37 | 53.94099 | 10.66776 | 16613 ft | 381 kts | 51° |
| 2026-05-06 12:37 | 53.95901 | 10.70111 | 17220 ft | 385 kts | 47° |
| 2026-05-06 12:37 | 53.97743 | 10.73447 | 17799 ft | 390 kts | 47° |
| 2026-05-06 12:38 | 53.99611 | 10.76821 | 18367 ft | 393 kts | 47° |
| 2026-05-06 12:38 | 54.01486 | 10.80225 | 18890 ft | 397 kts | 46° |
| 2026-05-06 12:38 | 54.03375 | 10.83670 | 19415 ft | 399 kts | 47° |
| 2026-05-06 12:38 | 54.05278 | 10.87140 | 19945 ft | 402 kts | 47° |
| 2026-05-06 12:39 | 54.07189 | 10.90638 | 20452 ft | 405 kts | 47° |
| 2026-05-06 12:39 | 54.09088 | 10.94125 | 20965 ft | 408 kts | 47° |
| 2026-05-06 12:39 | 54.11050 | 10.97734 | 21450 ft | 411 kts | 47° |
| 2026-05-06 12:39 | 54.12999 | 11.01319 | 21960 ft | 414 kts | 47° |
| 2026-05-06 12:40 | 54.14932 | 11.04887 | 22344 ft | 416 kts | 47° |
| 2026-05-06 12:40 | 54.16894 | 11.08528 | 22614 ft | 417 kts | 47° |
| 2026-05-06 12:40 | 54.18856 | 11.12183 | 22839 ft | 419 kts | 47° |
| 2026-05-06 12:40 | 54.20808 | 11.15825 | 22900 ft | 412 kts | 47° |
| 2026-05-06 12:41 | 54.22742 | 11.19432 | 22883 ft | 410 kts | 47° |
| 2026-05-06 12:41 | 54.24667 | 11.23028 | 22889 ft | 409 kts | 47° |
| 2026-05-06 12:41 | 54.26586 | 11.26619 | 22889 ft | 410 kts | 47° |
| 2026-05-06 12:41 | 54.28510 | 11.30229 | 22890 ft | 410 kts | 47° |
| 2026-05-06 12:42 | 54.30427 | 11.33832 | 22889 ft | 410 kts | 47° |
| 2026-05-06 12:42 | 54.32347 | 11.37450 | 22900 ft | 410 kts | 47° |
| 2026-05-06 12:42 | 54.34260 | 11.41063 | 22900 ft | 409 kts | 47° |
| 2026-05-06 12:42 | 54.36177 | 11.44680 | 22898 ft | 410 kts | 47° |
| 2026-05-06 12:43 | 54.38094 | 11.48300 | 22900 ft | 410 kts | 47° |
| 2026-05-06 12:43 | 54.40014 | 11.51922 | 22888 ft | 410 kts | 47° |
| 2026-05-06 12:43 | 54.41930 | 11.55537 | 22892 ft | 409 kts | 47° |
| 2026-05-06 12:43 | 54.43845 | 11.59154 | 22890 ft | 410 kts | 47° |
| 2026-05-06 12:44 | 54.45759 | 11.62782 | 22903 ft | 409 kts | 47° |
| 2026-05-06 12:44 | 54.47672 | 11.66410 | 22908 ft | 409 kts | 47° |
| 2026-05-06 12:44 | 54.49585 | 11.70036 | 22911 ft | 409 kts | 47° |
| 2026-05-06 12:44 | 54.51495 | 11.73660 | 22911 ft | 409 kts | 47° |
| 2026-05-06 12:45 | 54.53405 | 11.77291 | 22912 ft | 409 kts | 47° |
| 2026-05-06 12:45 | 54.55311 | 11.80922 | 22876 ft | 407 kts | 47° |
| 2026-05-06 12:45 | 54.59017 | 11.88011 | 22022 ft | 396 kts | 47° |
| 2026-05-06 12:46 | 54.60861 | 11.91513 | 21519 ft | 393 kts | 45° |
| 2026-05-06 12:46 | 54.62919 | 11.94578 | 21026 ft | 389 kts | 34° |
| 2026-05-06 12:46 | 54.65160 | 11.97158 | 20540 ft | 387 kts | 32° |
| 2026-05-06 12:46 | 54.67398 | 11.99727 | 20074 ft | 385 kts | 33° |
| 2026-05-06 12:47 | 54.69616 | 12.02286 | 19611 ft | 383 kts | 33° |
| 2026-05-06 12:47 | 54.71821 | 12.04842 | 19138 ft | 381 kts | 33° |
| 2026-05-06 12:47 | 54.74013 | 12.07388 | 18691 ft | 379 kts | 33° |
| 2026-05-06 12:47 | 54.76197 | 12.09931 | 18239 ft | 377 kts | 34° |
| 2026-05-06 12:48 | 54.78367 | 12.12459 | 17735 ft | 376 kts | 33° |
| 2026-05-06 12:48 | 54.80534 | 12.14978 | 17225 ft | 374 kts | 33° |
| 2026-05-06 12:48 | 54.82692 | 12.17484 | 16723 ft | 373 kts | 33° |
| 2026-05-06 12:48 | 54.84842 | 12.19982 | 16229 ft | 371 kts | 33° |
| 2026-05-06 12:49 | 54.86982 | 12.22476 | 15750 ft | 370 kts | 32° |
| 2026-05-06 12:49 | 54.89109 | 12.24963 | 15272 ft | 368 kts | 32° |
| 2026-05-06 12:49 | 54.91229 | 12.27449 | 14803 ft | 366 kts | 32° |
| 2026-05-06 12:49 | 54.93333 | 12.29920 | 14343 ft | 364 kts | 33° |
| 2026-05-06 12:50 | 54.95427 | 12.32380 | 13888 ft | 362 kts | 32° |
| 2026-05-06 12:50 | 54.97511 | 12.34824 | 13392 ft | 361 kts | 32° |
| 2026-05-06 12:50 | 54.99587 | 12.37262 | 12882 ft | 359 kts | 32° |
| 2026-05-06 12:50 | 55.01651 | 12.39684 | 12377 ft | 357 kts | 32° |
| 2026-05-06 12:51 | 55.03702 | 12.42082 | 11894 ft | 354 kts | 32° |
| 2026-05-06 12:51 | 55.05738 | 12.44458 | 11412 ft | 351 kts | 33° |
| 2026-05-06 12:51 | 55.07758 | 12.46813 | 10935 ft | 348 kts | 33° |
| 2026-05-06 12:51 | 55.09732 | 12.49120 | 10465 ft | 344 kts | 33° |
| 2026-05-06 12:52 | 55.11739 | 12.51467 | 10002 ft | 341 kts | 33° |
| 2026-05-06 12:52 | 55.13677 | 12.53737 | 9517 ft | 338 kts | 33° |
| 2026-05-06 12:52 | 55.15616 | 12.56013 | 9007 ft | 334 kts | 34° |
| 2026-05-06 12:52 | 55.17536 | 12.58275 | 8505 ft | 331 kts | 34° |
| 2026-05-06 12:53 | 55.19433 | 12.60512 | 8004 ft | 327 kts | 34° |
| 2026-05-06 12:53 | 55.21307 | 12.62719 | 7521 ft | 323 kts | 34° |
| 2026-05-06 12:53 | 55.23163 | 12.64887 | 7034 ft | 319 kts | 32° |
| 2026-05-06 12:53 | 55.25090 | 12.66768 | 6558 ft | 315 kts | 30° |
| 2026-05-06 12:54 | 55.26991 | 12.68596 | 6271 ft | 306 kts | 30° |
| 2026-05-06 12:54 | 55.28808 | 12.70349 | 6134 ft | 291 kts | 30° |
| 2026-05-06 12:54 | 55.30543 | 12.72027 | 5999 ft | 278 kts | 30° |
| 2026-05-06 12:54 | 55.32196 | 12.73621 | 5864 ft | 265 kts | 29° |
| 2026-05-06 12:55 | 55.33924 | 12.74571 | 5741 ft | 261 kts | 7° |
| 2026-05-06 12:55 | 55.35727 | 12.74180 | 5595 ft | 265 kts | 341° |
| 2026-05-06 12:55 | 55.37248 | 12.72337 | 5477 ft | 271 kts | 313° |
| 2026-05-06 12:55 | 55.38213 | 12.69466 | 5355 ft | 276 kts | 297° |
| 2026-05-06 12:56 | 55.38992 | 12.66391 | 5215 ft | 274 kts | 295° |
| 2026-05-06 12:56 | 55.39752 | 12.63317 | 5097 ft | 274 kts | 295° |
| 2026-05-06 12:56 | 55.40644 | 12.60374 | 4937 ft | 271 kts | 309° |
| 2026-05-06 12:56 | 55.41868 | 12.57848 | 4465 ft | 271 kts | 315° |
| 2026-05-06 12:57 | 55.43149 | 12.55398 | 3989 ft | 272 kts | 315° |
| 2026-05-06 12:57 | 55.44430 | 12.52947 | 3544 ft | 272 kts | 315° |
| 2026-05-06 12:57 | 55.45695 | 12.50544 | 3151 ft | 265 kts | 315° |
| 2026-05-06 12:57 | 55.46944 | 12.48156 | 2768 ft | 263 kts | 315° |
| 2026-05-06 12:58 | 55.48187 | 12.45774 | 2506 ft | 265 kts | 315° |
| 2026-05-06 12:58 | 55.49581 | 12.43728 | 2270 ft | 258 kts | 338° |
| 2026-05-06 12:58 | 55.51292 | 12.43093 | 2075 ft | 250 kts | 7° |
| 2026-05-06 12:58 | 55.53011 | 12.43533 | 1998 ft | 250 kts | 14° |
| 2026-05-06 12:59 | 55.54641 | 12.44490 | 2001 ft | 246 kts | 36° |
| 2026-05-06 12:59 | 55.55774 | 12.46662 | 2003 ft | 241 kts | 64° |
| 2026-05-06 12:59 | 55.56170 | 12.49497 | 1590 ft | 237 kts | 88° |
| 2026-05-06 12:59 | 55.56074 | 12.52354 | 1193 ft | 236 kts | 100° |
| 2026-05-06 13:00 | 55.55960 | 12.55110 | 1308 ft | 215 kts | 85° |
| 2026-05-06 13:00 | 55.56458 | 12.57410 | 980 ft | 197 kts | 51° |
| 2026-05-06 13:00 | 55.57596 | 12.58553 | 653 ft | 186 kts | 23° |
| 2026-05-06 13:00 | 55.58712 | 12.59532 | 241 ft | 174 kts | 44° |
| 2026-05-06 13:01 | 55.59551 | 12.60856 | 90 ft | 150 kts | 44° |
| 2026-05-06 13:01 | 55.60257 | 12.61957 | 26 ft | 115 kts | 41° |
| 2026-05-06 13:01 | 55.60647 | 12.62556 | 30 ft | 47 kts | 41° |
| 2026-05-06 13:01 | 55.60795 | 12.62756 | 27 ft | 30 kts | 30° |
| 2026-05-06 13:02 | 55.61016 | 12.62880 | 24 ft | 24 kts | 12° |
| 2026-05-06 13:02 | 55.61153 | 12.62963 | 24 ft | 17 kts | 36° |
| 2026-05-06 13:02 | 55.61163 | 12.62976 | 24 ft | 0 kts | 36° |
| 2026-05-06 13:03 | 55.61205 | 12.63038 | 24 ft | 16 kts | 41° |
| 2026-05-06 13:03 | 55.61296 | 12.63181 | 24 ft | 19 kts | 41° |
| 2026-05-06 13:03 | 55.61402 | 12.63344 | 24 ft | 21 kts | 41° |
| 2026-05-06 13:04 | 55.61521 | 12.63528 | 24 ft | 24 kts | 41° |
| 2026-05-06 13:04 | 55.61649 | 12.63723 | 24 ft | 23 kts | 39° |
| 2026-05-06 13:04 | 55.61772 | 12.63915 | 24 ft | 25 kts | 42° |
| 2026-05-06 13:04 | 55.61899 | 12.64090 | 24 ft | 23 kts | 28° |
| 2026-05-06 13:05 | 55.62048 | 12.64217 | 24 ft | 22 kts | 25° |
| 2026-05-06 13:05 | 55.62136 | 12.64290 | 25 ft | 0 kts | 25° |
| 2026-05-06 13:05 | 55.62143 | 12.64295 | 24 ft | 2 kts | 25° |
| 2026-05-06 13:06 | 55.62160 | 12.64309 | 23 ft | 8 kts | 25° |
| 2026-05-06 13:06 | 55.62250 | 12.64378 | 22 ft | 13 kts | 18° |
| 2026-05-06 13:06 | 55.62335 | 12.64421 | 26 ft | 13 kts | 16° |
| 2026-05-06 13:06 | 55.62420 | 12.64463 | 24 ft | 13 kts | 15° |
| 2026-05-06 13:07 | 55.62498 | 12.64469 | 25 ft | 10 kts | 320° |
| 2026-05-06 13:07 | 55.62532 | 12.64391 | 24 ft | 7 kts | 304° |
| 2026-05-06 13:07 | 55.62556 | 12.64327 | 25 ft | 6 kts | 303° |
| 2026-05-06 13:07 | 55.62577 | 12.64267 | 24 ft | 8 kts | 302° |
| 2026-05-06 13:08 | 55.62628 | 12.64126 | 25 ft | 15 kts | 305° |
| 2026-05-06 13:08 | 55.62680 | 12.63985 | 24 ft | 12 kts | 302° |
| 2026-05-06 13:08 | 55.62708 | 12.63990 | 24 ft | 2 kts | 50° |
| 2026-05-06 13:08 | 55.62728 | 12.64021 | 25 ft | 4 kts | 34° |
| 2026-05-06 13:09 | 55.62744 | 12.64040 | 24 ft | 0 kts | 33° |
| 2026-05-06 13:09 | 55.62745 | 12.64041 | 24 ft | 0 kts | 31° |